sensor_id;sensor_type;location;lat;lon;timestamp;pressure;altitude;pressure_sealevel;temperature;humidity
22649;BME280;11491;41.942;24.220;2022-12-07T00:01:38;89869.59;;;0.47;88.13
22649;BME280;11491;41.942;24.220;2022-12-07T00:04:06;89862.78;;;0.46;88.99
22649;BME280;11491;41.942;24.220;2022-12-07T00:06:35;89840.66;;;0.47;88.92
22649;BME280;11491;41.942;24.220;2022-12-07T00:09:03;89860.38;;;0.69;88.00
22649;BME280;11491;41.942;24.220;2022-12-07T00:11:30;89865.06;;;0.72;88.35
22649;BME280;11491;41.942;24.220;2022-12-07T00:13:59;89846.63;;;0.72;88.63
22649;BME280;11491;41.942;24.220;2022-12-07T00:16:31;89858.09;;;0.81;88.71
22649;BME280;11491;41.942;24.220;2022-12-07T00:19:00;89853.03;;;0.84;88.28
22649;BME280;11491;41.942;24.220;2022-12-07T00:21:28;89853.59;;;0.81;87.96
22649;BME280;11491;41.942;24.220;2022-12-07T00:23:56;89852.53;;;1.01;86.54
22649;BME280;11491;41.942;24.220;2022-12-07T00:26:24;89845.78;;;0.95;85.62
22649;BME280;11491;41.942;24.220;2022-12-07T00:28:53;89854.81;;;0.89;86.33
22649;BME280;11491;41.942;24.220;2022-12-07T00:31:22;89856.88;;;0.92;86.44
22649;BME280;11491;41.942;24.220;2022-12-07T00:33:49;89855.72;;;0.98;86.16
22649;BME280;11491;41.942;24.220;2022-12-07T00:36:19;89860.16;;;0.84;85.87
22649;BME280;11491;41.942;24.220;2022-12-07T00:38:46;89859.94;;;0.61;86.71
22649;BME280;11491;41.942;24.220;2022-12-07T00:41:15;89868.63;;;0.43;88.55
22649;BME280;11491;41.942;24.220;2022-12-07T00:43:43;89864.22;;;0.57;87.96
22649;BME280;11491;41.942;24.220;2022-12-07T00:46:11;89853.91;;;0.61;87.80
22649;BME280;11491;41.942;24.220;2022-12-07T00:48:38;89857.53;;;0.65;87.51
22649;BME280;11491;41.942;24.220;2022-12-07T00:51:05;89857.03;;;0.63;87.52
22649;BME280;11491;41.942;24.220;2022-12-07T00:53:35;89861.38;;;0.73;87.21
22649;BME280;11491;41.942;24.220;2022-12-07T00:56:05;89854.38;;;0.82;86.24
22649;BME280;11491;41.942;24.220;2022-12-07T00:58:31;89857.47;;;0.70;86.13
22649;BME280;11491;41.942;24.220;2022-12-07T01:01:00;89857.97;;;0.53;86.99
22649;BME280;11491;41.942;24.220;2022-12-07T01:03:28;89849.06;;;0.49;87.48
22649;BME280;11491;41.942;24.220;2022-12-07T01:05:55;89860.44;;;0.63;87.24
22649;BME280;11491;41.942;24.220;2022-12-07T01:08:23;89860.66;;;0.67;86.84
22649;BME280;11491;41.942;24.220;2022-12-07T01:10:59;89858.25;;;0.71;85.15
22649;BME280;11491;41.942;24.220;2022-12-07T01:13:26;89866.22;;;0.66;85.35
22649;BME280;11491;41.942;24.220;2022-12-07T01:15:56;89858.88;;;0.62;85.84
22649;BME280;11491;41.942;24.220;2022-12-07T01:18:25;89853.81;;;0.47;86.69
22649;BME280;11491;41.942;24.220;2022-12-07T01:20:59;89854.25;;;0.54;86.69
22649;BME280;11491;41.942;24.220;2022-12-07T01:23:26;89857.63;;;0.60;86.43
22649;BME280;11491;41.942;24.220;2022-12-07T01:25:58;89850.41;;;0.66;85.35
22649;BME280;11491;41.942;24.220;2022-12-07T01:28:26;89850.56;;;0.55;86.34
22649;BME280;11491;41.942;24.220;2022-12-07T01:30:57;89833.81;;;0.27;86.15
22649;BME280;11491;41.942;24.220;2022-12-07T01:33:26;89844.53;;;0.12;87.44
22649;BME280;11491;41.942;24.220;2022-12-07T01:35:53;89844.59;;;-0.17;89.23
22649;BME280;11491;41.942;24.220;2022-12-07T01:38:20;89841.25;;;0.01;89.14
22649;BME280;11491;41.942;24.220;2022-12-07T01:40:54;89838.44;;;0.16;89.10
22649;BME280;11491;41.942;24.220;2022-12-07T01:43:23;89824.78;;;0.14;88.68
22649;BME280;11491;41.942;24.220;2022-12-07T01:45:50;89839.31;;;0.31;88.68
22649;BME280;11491;41.942;24.220;2022-12-07T01:48:19;89831.94;;;0.33;88.15
22649;BME280;11491;41.942;24.220;2022-12-07T01:50:48;89832.28;;;0.45;88.33
22649;BME280;11491;41.942;24.220;2022-12-07T01:53:17;89825.53;;;0.58;87.17
22649;BME280;11491;41.942;24.220;2022-12-07T01:55:46;89821.41;;;0.52;86.64
22649;BME280;11491;41.942;24.220;2022-12-07T01:58:16;89827.78;;;0.27;87.64
22649;BME280;11491;41.942;24.220;2022-12-07T02:00:44;89832.97;;;0.32;88.41
22649;BME280;11491;41.942;24.220;2022-12-07T02:03:15;89825.53;;;0.39;88.21
22649;BME280;11491;41.942;24.220;2022-12-07T02:05:46;89828.66;;;0.41;88.14
22649;BME280;11491;41.942;24.220;2022-12-07T02:08:13;89838.03;;;0.47;87.76
22649;BME280;11491;41.942;24.220;2022-12-07T02:10:40;89799.94;;;0.26;87.99
22649;BME280;11491;41.942;24.220;2022-12-07T02:13:12;89824.25;;;0.55;87.90
22649;BME280;11491;41.942;24.220;2022-12-07T02:15:49;89820.13;;;0.49;87.56
22649;BME280;11491;41.942;24.220;2022-12-07T02:18:23;89819.19;;;0.59;86.86
22649;BME280;11491;41.942;24.220;2022-12-07T02:20:53;89835.13;;;0.68;86.71
22649;BME280;11491;41.942;24.220;2022-12-07T02:23:48;89828.38;;;0.61;86.97
22649;BME280;11491;41.942;24.220;2022-12-07T02:29:35;89828.50;;;0.51;87.70
22649;BME280;11491;41.942;24.220;2022-12-07T02:32:08;89825.22;;;0.59;87.72
22649;BME280;11491;41.942;24.220;2022-12-07T02:34:43;89815.84;;;0.53;87.62
22649;BME280;11491;41.942;24.220;2022-12-07T02:37:25;89812.00;;;0.64;87.21
22649;BME280;11491;41.942;24.220;2022-12-07T02:39:58;89814.00;;;0.73;86.21
22649;BME280;11491;41.942;24.220;2022-12-07T02:42:30;89801.13;;;0.71;86.49
22649;BME280;11491;41.942;24.220;2022-12-07T02:45:00;89802.06;;;0.61;86.97
22649;BME280;11491;41.942;24.220;2022-12-07T02:47:28;89796.72;;;0.67;86.96
22649;BME280;11491;41.942;24.220;2022-12-07T02:49:56;89798.78;;;0.70;86.63
22649;BME280;11491;41.942;24.220;2022-12-07T02:52:23;89799.00;;;0.73;85.92
22649;BME280;11491;41.942;24.220;2022-12-07T02:54:49;89800.34;;;0.71;85.85
22649;BME280;11491;41.942;24.220;2022-12-07T02:57:31;89797.50;;;0.48;85.67
22649;BME280;11491;41.942;24.220;2022-12-07T03:00:08;89794.22;;;0.56;86.24
22649;BME280;11491;41.942;24.220;2022-12-07T03:02:41;89785.84;;;0.54;86.38
22649;BME280;11491;41.942;24.220;2022-12-07T03:05:25;89789.47;;;0.58;85.70
22649;BME280;11491;41.942;24.220;2022-12-07T03:08:00;89765.53;;;0.41;86.19
22649;BME280;11491;41.942;24.220;2022-12-07T03:10:35;89783.84;;;0.46;86.47
22649;BME280;11491;41.942;24.220;2022-12-07T03:13:11;89788.63;;;0.44;86.64
22649;BME280;11491;41.942;24.220;2022-12-07T03:15:43;89792.75;;;0.50;87.30
22649;BME280;11491;41.942;24.220;2022-12-07T03:18:15;89802.34;;;0.41;87.69
22649;BME280;11491;41.942;24.220;2022-12-07T03:20:44;89792.59;;;0.41;87.81
22649;BME280;11491;41.942;24.220;2022-12-07T03:23:15;89790.66;;;0.47;87.82
22649;BME280;11491;41.942;24.220;2022-12-07T03:25:45;89804.41;;;0.63;86.61
22649;BME280;11491;41.942;24.220;2022-12-07T03:28:15;89755.06;;;0.17;86.85
22649;BME280;11491;41.942;24.220;2022-12-07T03:30:49;89800.28;;;0.57;87.08
22649;BME280;11491;41.942;24.220;2022-12-07T03:33:20;89787.41;;;0.55;87.17
22649;BME280;11491;41.942;24.220;2022-12-07T03:35:51;89796.00;;;0.61;86.71
22649;BME280;11491;41.942;24.220;2022-12-07T03:38:24;89796.00;;;0.61;86.67
22649;BME280;11491;41.942;24.220;2022-12-07T03:40:55;89801.28;;;0.61;86.36
22649;BME280;11491;41.942;24.220;2022-12-07T03:43:25;89801.47;;;0.64;87.14
22649;BME280;11491;41.942;24.220;2022-12-07T03:46:01;89801.63;;;0.54;87.16
22649;BME280;11491;41.942;24.220;2022-12-07T03:48:36;89798.09;;;0.45;87.09
22649;BME280;11491;41.942;24.220;2022-12-07T03:51:13;89797.59;;;0.43;87.52
22649;BME280;11491;41.942;24.220;2022-12-07T03:53:48;89799.06;;;0.49;87.17
22649;BME280;11491;41.942;24.220;2022-12-07T03:56:18;89793.66;;;0.59;86.94
22649;BME280;11491;41.942;24.220;2022-12-07T03:58:46;89791.94;;;0.69;85.99
22649;BME280;11491;41.942;24.220;2022-12-07T04:01:14;89790.16;;;0.64;85.62
22649;BME280;11491;41.942;24.220;2022-12-07T04:03:41;89787.25;;;0.66;85.70
22649;BME280;11491;41.942;24.220;2022-12-07T04:06:08;89791.94;;;0.69;85.80
22649;BME280;11491;41.942;24.220;2022-12-07T04:08:35;89788.38;;;0.59;86.19
22649;BME280;11491;41.942;24.220;2022-12-07T04:11:02;89784.88;;;0.50;86.43
22649;BME280;11491;41.942;24.220;2022-12-07T04:13:29;89798.13;;;0.59;86.28
22649;BME280;11491;41.942;24.220;2022-12-07T04:16:17;89784.78;;;0.55;86.89
22649;BME280;11491;41.942;24.220;2022-12-07T04:18:44;89783.56;;;0.67;86.28
22649;BME280;11491;41.942;24.220;2022-12-07T04:21:10;89777.78;;;0.64;86.51
22649;BME280;11491;41.942;24.220;2022-12-07T04:23:37;89776.50;;;0.62;86.88
22649;BME280;11491;41.942;24.220;2022-12-07T04:26:04;89781.41;;;0.69;85.29
22649;BME280;11491;41.942;24.220;2022-12-07T04:28:31;89783.56;;;0.67;85.29
22649;BME280;11491;41.942;24.220;2022-12-07T04:30:57;89786.06;;;0.58;86.26
22649;BME280;11491;41.942;24.220;2022-12-07T04:33:26;89784.44;;;0.43;86.15
22649;BME280;11491;41.942;24.220;2022-12-07T04:35:52;89788.00;;;0.52;86.86
22649;BME280;11491;41.942;24.220;2022-12-07T04:38:19;89779.53;;;0.55;86.06
22649;BME280;11491;41.942;24.220;2022-12-07T04:40:46;89776.75;;;0.66;85.41
22649;BME280;11491;41.942;24.220;2022-12-07T04:43:12;89792.19;;;0.72;84.91
22649;BME280;11491;41.942;24.220;2022-12-07T04:45:39;89786.09;;;0.72;84.24
22649;BME280;11491;41.942;24.220;2022-12-07T04:48:06;89773.09;;;0.61;84.43
22649;BME280;11491;41.942;24.220;2022-12-07T04:50:35;89778.94;;;0.58;85.14
22649;BME280;11491;41.942;24.220;2022-12-07T04:53:03;89778.88;;;0.63;85.58
22649;BME280;11491;41.942;24.220;2022-12-07T04:55:30;89781.50;;;0.63;86.04
22649;BME280;11491;41.942;24.220;2022-12-07T04:57:56;89785.69;;;0.64;86.08
22649;BME280;11491;41.942;24.220;2022-12-07T05:00:23;89784.56;;;0.71;86.63
22649;BME280;11491;41.942;24.220;2022-12-07T05:02:50;89781.84;;;0.76;86.67
22649;BME280;11491;41.942;24.220;2022-12-07T05:05:17;89779.72;;;0.78;86.28
22649;BME280;11491;41.942;24.220;2022-12-07T05:07:45;89783.81;;;0.84;85.02
22649;BME280;11491;41.942;24.220;2022-12-07T05:10:11;89783.41;;;0.77;85.01
22649;BME280;11491;41.942;24.220;2022-12-07T05:12:38;89781.84;;;0.76;85.23
22649;BME280;11491;41.942;24.220;2022-12-07T05:15:05;89781.41;;;0.69;86.14
22649;BME280;11491;41.942;24.220;2022-12-07T05:17:32;89784.97;;;0.78;85.76
22649;BME280;11491;41.942;24.220;2022-12-07T05:19:59;89788.09;;;0.80;85.65
22649;BME280;11491;41.942;24.220;2022-12-07T05:22:25;89786.03;;;0.77;86.20
22649;BME280;11491;41.942;24.220;2022-12-07T05:24:55;89791.38;;;0.72;86.75
22649;BME280;11491;41.942;24.220;2022-12-07T05:27:22;89784.47;;;0.76;85.90
22649;BME280;11491;41.942;24.220;2022-12-07T05:29:49;89787.53;;;0.83;85.30
22649;BME280;11491;41.942;24.220;2022-12-07T05:32:17;89792.97;;;0.86;85.72
22649;BME280;11491;41.942;24.220;2022-12-07T05:34:43;89799.69;;;0.79;85.91
22649;BME280;11491;41.942;24.220;2022-12-07T05:37:10;89796.78;;;0.80;86.53
22649;BME280;11491;41.942;24.220;2022-12-07T05:39:37;89789.56;;;0.86;86.61
22649;BME280;11491;41.942;24.220;2022-12-07T05:42:08;89790.16;;;0.83;86.82
22649;BME280;11491;41.942;24.220;2022-12-07T05:44:38;89800.53;;;0.93;87.13
22649;BME280;11491;41.942;24.220;2022-12-07T05:47:05;89795.34;;;0.88;87.04
22649;BME280;11491;41.942;24.220;2022-12-07T05:49:32;89789.06;;;0.84;86.99
22649;BME280;11491;41.942;24.220;2022-12-07T05:51:59;89790.28;;;0.92;86.05
22649;BME280;11491;41.942;24.220;2022-12-07T05:54:26;89805.03;;;1.06;85.68
22649;BME280;11491;41.942;24.220;2022-12-07T05:56:53;89803.00;;;1.03;84.99
22649;BME280;11491;41.942;24.220;2022-12-07T05:59:21;89808.25;;;1.03;85.46
22649;BME280;11491;41.942;24.220;2022-12-07T06:01:51;89814.69;;;0.97;85.68
22649;BME280;11491;41.942;24.220;2022-12-07T06:04:18;89816.25;;;0.98;86.27
22649;BME280;11491;41.942;24.220;2022-12-07T06:06:46;89809.97;;;0.94;86.38
22649;BME280;11491;41.942;24.220;2022-12-07T06:09:14;89812.91;;;0.93;87.21
22649;BME280;11491;41.942;24.220;2022-12-07T06:11:41;89800.72;;;0.97;86.22
22649;BME280;11491;41.942;24.220;2022-12-07T06:14:26;89783.66;;;0.94;85.77
22649;BME280;11491;41.942;24.220;2022-12-07T06:16:53;89816.50;;;1.16;85.49
22649;BME280;11491;41.942;24.220;2022-12-07T06:19:20;89807.13;;;1.10;86.26
22649;BME280;11491;41.942;24.220;2022-12-07T06:21:47;89817.66;;;1.10;86.82
22649;BME280;11491;41.942;24.220;2022-12-07T06:24:15;89818.03;;;1.17;86.77
22649;BME280;11491;41.942;24.220;2022-12-07T06:26:43;89807.50;;;1.17;86.81
22649;BME280;11491;41.942;24.220;2022-12-07T06:29:10;89807.34;;;1.27;86.17
22649;BME280;11491;41.942;24.220;2022-12-07T06:31:38;89810.09;;;1.22;86.30
22649;BME280;11491;41.942;24.220;2022-12-07T06:34:06;89808.31;;;1.31;86.13
22649;BME280;11491;41.942;24.220;2022-12-07T06:36:33;89814.88;;;1.34;86.19
22649;BME280;11491;41.942;24.220;2022-12-07T06:39:00;89818.13;;;1.44;86.26
22649;BME280;11491;41.942;24.220;2022-12-07T06:41:27;89810.44;;;1.62;85.26
22649;BME280;11491;41.942;24.220;2022-12-07T06:43:54;89817.94;;;1.55;85.43
22649;BME280;11491;41.942;24.220;2022-12-07T06:46:21;89818.44;;;1.24;86.47
22649;BME280;11491;41.942;24.220;2022-12-07T06:48:49;89816.31;;;1.26;87.61
22649;BME280;11491;41.942;24.220;2022-12-07T06:51:16;89809.22;;;1.40;87.96
22649;BME280;11491;41.942;24.220;2022-12-07T06:53:43;89800.16;;;1.46;88.50
22649;BME280;11491;41.942;24.220;2022-12-07T06:56:10;89812.41;;;1.70;89.21
22649;BME280;11491;41.942;24.220;2022-12-07T06:58:36;89782.00;;;1.59;88.94
22649;BME280;11491;41.942;24.220;2022-12-07T07:01:09;89822.06;;;1.88;88.98
22649;BME280;11491;41.942;24.220;2022-12-07T07:03:35;89820.50;;;2.01;88.68
22649;BME280;11491;41.942;24.220;2022-12-07T07:06:07;89816.22;;;2.19;89.08
22649;BME280;11491;41.942;24.220;2022-12-07T07:08:34;89801.03;;;2.39;88.92
22649;BME280;11491;41.942;24.220;2022-12-07T07:11:01;89816.09;;;2.74;88.13
22649;BME280;11491;41.942;24.220;2022-12-07T07:13:28;89813.97;;;2.99;86.50
22649;BME280;11491;41.942;24.220;2022-12-07T07:15:55;89814.34;;;3.29;86.03
22649;BME280;11491;41.942;24.220;2022-12-07T07:18:23;89787.69;;;3.48;85.08
22649;BME280;11491;41.942;24.220;2022-12-07T07:20:50;89798.13;;;3.84;84.15
22649;BME280;11491;41.942;24.220;2022-12-07T07:23:18;89800.25;;;4.04;82.96
22649;BME280;11491;41.942;24.220;2022-12-07T07:25:45;89796.78;;;4.35;82.11
22649;BME280;11491;41.942;24.220;2022-12-07T07:28:12;89805.38;;;4.67;80.67
22649;BME280;11491;41.942;24.220;2022-12-07T07:30:39;89805.13;;;4.94;80.10
22649;BME280;11491;41.942;24.220;2022-12-07T07:33:06;89808.03;;;5.19;79.09
22649;BME280;11491;41.942;24.220;2022-12-07T07:35:34;89800.56;;;5.21;77.78
22649;BME280;11491;41.942;24.220;2022-12-07T07:38:01;89798.53;;;5.35;78.03
22649;BME280;11491;41.942;24.220;2022-12-07T07:40:29;89799.44;;;5.48;77.33
22649;BME280;11491;41.942;24.220;2022-12-07T07:42:56;89793.00;;;5.75;76.57
22649;BME280;11491;41.942;24.220;2022-12-07T07:45:25;89799.16;;;6.14;76.16
22649;BME280;11491;41.942;24.220;2022-12-07T07:47:52;89803.94;;;6.30;75.67
22649;BME280;11491;41.942;24.220;2022-12-07T07:50:19;89811.31;;;6.54;75.33
22649;BME280;11491;41.942;24.220;2022-12-07T07:52:46;89793.66;;;6.79;74.21
22649;BME280;11491;41.942;24.220;2022-12-07T07:55:13;89792.16;;;7.32;72.58
22649;BME280;11491;41.942;24.220;2022-12-07T07:57:41;89807.81;;;7.67;71.98
22649;BME280;11491;41.942;24.220;2022-12-07T08:00:10;89803.41;;;8.16;70.35
22649;BME280;11491;41.942;24.220;2022-12-07T08:02:37;89790.03;;;8.74;68.49
22649;BME280;11491;41.942;24.220;2022-12-07T08:05:04;89795.25;;;9.36;66.35
22649;BME280;11491;41.942;24.220;2022-12-07T08:07:31;89795.03;;;9.97;63.72
22649;BME280;11491;41.942;24.220;2022-12-07T08:09:58;89792.91;;;10.19;62.25
22649;BME280;11491;41.942;24.220;2022-12-07T08:12:25;89786.06;;;10.05;62.38
22649;BME280;11491;41.942;24.220;2022-12-07T08:14:53;89784.44;;;10.01;62.62
22649;BME280;11491;41.942;24.220;2022-12-07T08:17:19;89784.88;;;10.03;62.93
22649;BME280;11491;41.942;24.220;2022-12-07T08:19:46;89778.75;;;10.02;62.48
22649;BME280;11491;41.942;24.220;2022-12-07T08:22:13;89782.97;;;10.03;62.79
22649;BME280;11491;41.942;24.220;2022-12-07T08:24:40;89769.59;;;10.03;63.04
22649;BME280;11491;41.942;24.220;2022-12-07T08:27:06;89756.81;;;10.25;62.79
22649;BME280;11491;41.942;24.220;2022-12-07T08:29:33;89783.16;;;11.06;60.57
22649;BME280;11491;41.942;24.220;2022-12-07T08:32:01;89781.00;;;11.11;59.79
22649;BME280;11491;41.942;24.220;2022-12-07T08:34:28;89784.59;;;10.84;60.24
22649;BME280;11491;41.942;24.220;2022-12-07T08:36:55;89773.81;;;10.64;61.41
22649;BME280;11491;41.942;24.220;2022-12-07T08:39:22;89780.22;;;11.30;60.32
22649;BME280;11491;41.942;24.220;2022-12-07T08:41:49;89773.19;;;12.19;57.61
22649;BME280;11491;41.942;24.220;2022-12-07T08:44:15;89776.25;;;13.13;55.06
22649;BME280;11491;41.942;24.220;2022-12-07T08:46:45;89768.16;;;13.97;52.30
22649;BME280;11491;41.942;24.220;2022-12-07T08:49:17;89771.34;;;14.84;49.99
22649;BME280;11491;41.942;24.220;2022-12-07T08:51:45;89763.44;;;15.68;47.58
22649;BME280;11491;41.942;24.220;2022-12-07T08:54:14;89765.28;;;16.34;46.43
22649;BME280;11491;41.942;24.220;2022-12-07T08:56:41;89758.88;;;16.99;45.13
22649;BME280;11491;41.942;24.220;2022-12-07T08:59:08;89756.84;;;17.72;43.37
22649;BME280;11491;41.942;24.220;2022-12-07T09:01:35;89756.00;;;18.07;41.83
22649;BME280;11491;41.942;24.220;2022-12-07T09:04:05;89746.41;;;17.92;41.52
22649;BME280;11491;41.942;24.220;2022-12-07T09:06:33;89737.22;;;17.42;42.03
22649;BME280;11491;41.942;24.220;2022-12-07T09:09:01;89732.97;;;17.16;41.44
22649;BME280;11491;41.942;24.220;2022-12-07T09:11:29;89732.13;;;15.39;44.56
22649;BME280;11491;41.942;24.220;2022-12-07T09:13:56;89730.38;;;12.46;50.78
22649;BME280;11491;41.942;24.220;2022-12-07T09:16:23;89733.72;;;12.62;52.80
22649;BME280;11491;41.942;24.220;2022-12-07T09:18:49;89729.72;;;13.29;51.82
22649;BME280;11491;41.942;24.220;2022-12-07T09:21:16;89724.22;;;13.82;50.58
22649;BME280;11491;41.942;24.220;2022-12-07T09:23:44;89715.84;;;14.25;48.83
22649;BME280;11491;41.942;24.220;2022-12-07T09:26:11;89719.97;;;15.04;47.04
22649;BME280;11491;41.942;24.220;2022-12-07T09:28:38;89706.72;;;13.95;47.43
22649;BME280;11491;41.942;24.220;2022-12-07T09:31:05;89721.00;;;12.59;51.92
22649;BME280;11491;41.942;24.220;2022-12-07T09:33:32;89710.25;;;12.10;53.29
22649;BME280;11491;41.942;24.220;2022-12-07T09:35:59;89716.97;;;12.46;54.12
22649;BME280;11491;41.942;24.220;2022-12-07T09:38:26;89715.22;;;12.31;52.36
22649;BME280;11491;41.942;24.220;2022-12-07T09:40:55;89712.91;;;11.48;56.50
22649;BME280;11491;41.942;24.220;2022-12-07T09:43:23;89713.19;;;11.42;56.79
22649;BME280;11491;41.942;24.220;2022-12-07T09:45:52;89708.88;;;10.64;58.68
22649;BME280;11491;41.942;24.220;2022-12-07T09:48:22;89711.59;;;10.83;58.85
22649;BME280;11491;41.942;24.220;2022-12-07T09:50:51;89709.31;;;10.66;58.32
22649;BME280;11491;41.942;24.220;2022-12-07T09:53:23;89697.69;;;9.51;63.45
22649;BME280;11491;41.942;24.220;2022-12-07T09:55:52;89707.50;;;9.18;63.46
22649;BME280;11491;41.942;24.220;2022-12-07T09:58:23;89694.13;;;9.31;64.50
22649;BME280;11491;41.942;24.220;2022-12-07T10:00:50;89685.44;;;9.34;63.73
22649;BME280;11491;41.942;24.220;2022-12-07T10:03:19;89694.22;;;10.26;60.65
22649;BME280;11491;41.942;24.220;2022-12-07T10:05:49;89689.91;;;10.69;59.51
22649;BME280;11491;41.942;24.220;2022-12-07T10:08:16;89689.94;;;11.08;58.98
22649;BME280;11491;41.942;24.220;2022-12-07T10:10:44;89693.09;;;11.33;56.12
22649;BME280;11491;41.942;24.220;2022-12-07T10:13:13;89693.06;;;10.74;58.90
22649;BME280;11491;41.942;24.220;2022-12-07T10:15:52;89685.28;;;10.34;59.79
22649;BME280;11491;41.942;24.220;2022-12-07T10:18:25;89685.75;;;10.55;59.37
22649;BME280;11491;41.942;24.220;2022-12-07T10:21:01;89677.78;;;10.24;59.39
22649;BME280;11491;41.942;24.220;2022-12-07T10:23:28;89680.00;;;10.06;60.74
22649;BME280;11491;41.942;24.220;2022-12-07T10:25:56;89676.66;;;10.09;60.43
22649;BME280;11491;41.942;24.220;2022-12-07T10:28:23;89675.06;;;10.55;58.99
22649;BME280;11491;41.942;24.220;2022-12-07T10:30:56;89683.44;;;10.89;59.05
22649;BME280;11491;41.942;24.220;2022-12-07T10:33:29;89682.63;;;11.24;55.72
22649;BME280;11491;41.942;24.220;2022-12-07T10:35:56;89676.84;;;11.03;57.08
22649;BME280;11491;41.942;24.220;2022-12-07T10:38:26;89679.22;;;10.53;57.09
22649;BME280;11491;41.942;24.220;2022-12-07T10:41:03;89676.84;;;10.32;58.96
22649;BME280;11491;41.942;24.220;2022-12-07T10:43:30;89646.78;;;9.87;60.30
22649;BME280;11491;41.942;24.220;2022-12-07T10:46:27;89672.09;;;10.41;58.71
22649;BME280;11491;41.942;24.220;2022-12-07T10:49:04;89674.09;;;12.00;54.21
22649;BME280;11491;41.942;24.220;2022-12-07T10:51:38;89668.09;;;11.64;54.06
22649;BME280;11491;41.942;24.220;2022-12-07T10:54:12;89676.59;;;10.37;57.79
22649;BME280;11491;41.942;24.220;2022-12-07T10:59:46;89668.09;;;9.56;61.29
22649;BME280;11491;41.942;24.220;2022-12-07T11:02:29;89665.97;;;9.17;63.10
22649;BME280;11491;41.942;24.220;2022-12-07T11:05:06;89660.75;;;9.37;62.41
22649;BME280;11491;41.942;24.220;2022-12-07T11:07:47;89663.44;;;9.37;64.40
22649;BME280;11491;41.942;24.220;2022-12-07T11:10:21;89655.78;;;9.51;63.05
22649;BME280;11491;41.942;24.220;2022-12-07T11:13:11;89651.31;;;9.55;61.69
22649;BME280;11491;41.942;24.220;2022-12-07T11:15:54;89659.75;;;9.57;62.96
22649;BME280;11491;41.942;24.220;2022-12-07T11:18:28;89643.81;;;9.45;62.90
22649;BME280;11491;41.942;24.220;2022-12-07T11:21:05;89640.00;;;9.46;63.59
22649;BME280;11491;41.942;24.220;2022-12-07T11:23:44;89629.66;;;9.28;63.23
22649;BME280;11491;41.942;24.220;2022-12-07T11:26:20;89645.72;;;9.16;64.85
22649;BME280;11491;41.942;24.220;2022-12-07T11:29:03;89600.91;;;9.22;64.50
22649;BME280;11491;41.942;24.220;2022-12-07T11:31:33;89638.16;;;9.62;63.04
22649;BME280;11491;41.942;24.220;2022-12-07T11:34:10;89625.13;;;9.45;62.94
22649;BME280;11491;41.942;24.220;2022-12-07T11:36:43;89628.91;;;9.44;64.06
22649;BME280;11491;41.942;24.220;2022-12-07T11:39:19;89622.72;;;9.12;64.27
22649;BME280;11491;41.942;24.220;2022-12-07T11:41:52;89623.22;;;9.30;64.48
22649;BME280;11491;41.942;24.220;2022-12-07T11:44:27;89623.97;;;9.14;62.94
22649;BME280;11491;41.942;24.220;2022-12-07T11:46:59;89623.13;;;8.98;64.90
22649;BME280;11491;41.942;24.220;2022-12-07T11:49:40;89618.06;;;8.93;64.63
22649;BME280;11491;41.942;24.220;2022-12-07T11:52:18;89623.97;;;8.46;65.98
22649;BME280;11491;41.942;24.220;2022-12-07T11:54:50;89634.19;;;8.31;67.29
22649;BME280;11491;41.942;24.220;2022-12-07T11:57:23;89631.31;;;8.24;66.94
22649;BME280;11491;41.942;24.220;2022-12-07T11:59:52;89636.75;;;8.15;67.69
22649;BME280;11491;41.942;24.220;2022-12-07T12:02:23;89625.31;;;8.39;66.93
22649;BME280;11491;41.942;24.220;2022-12-07T12:04:56;89622.09;;;9.46;63.21
22649;BME280;11491;41.942;24.220;2022-12-07T12:07:26;89615.91;;;10.22;59.85
22649;BME280;11491;41.942;24.220;2022-12-07T12:09:57;89610.81;;;10.32;58.36
22649;BME280;11491;41.942;24.220;2022-12-07T12:12:44;89612.59;;;10.44;59.44
22649;BME280;11491;41.942;24.220;2022-12-07T12:15:26;89597.53;;;10.36;59.67
22649;BME280;11491;41.942;24.220;2022-12-07T12:18:11;89601.19;;;9.96;60.96
22649;BME280;11491;41.942;24.220;2022-12-07T12:20:47;89595.16;;;9.36;62.46
22649;BME280;11491;41.942;24.220;2022-12-07T12:23:19;89586.53;;;9.26;62.50
22649;BME280;11491;41.942;24.220;2022-12-07T12:25:48;89598.66;;;9.24;62.65
22649;BME280;11491;41.942;24.220;2022-12-07T12:28:22;89604.22;;;9.03;63.49
22649;BME280;11491;41.942;24.220;2022-12-07T12:31:09;89591.22;;;9.01;63.69
22649;BME280;11491;41.942;24.220;2022-12-07T12:33:37;89587.34;;;8.99;64.72
22649;BME280;11491;41.942;24.220;2022-12-07T12:36:21;89583.69;;;8.75;64.38
22649;BME280;11491;41.942;24.220;2022-12-07T12:38:50;89598.31;;;8.81;64.97
22649;BME280;11491;41.942;24.220;2022-12-07T12:41:52;89596.28;;;8.91;65.82
22649;BME280;11491;41.942;24.220;2022-12-07T12:44:40;89589.91;;;8.79;65.36
22649;BME280;11491;41.942;24.220;2022-12-07T12:50:21;89583.00;;;8.78;64.36
22649;BME280;11491;41.942;24.220;2022-12-07T12:56:22;89583.88;;;8.82;65.20
22649;BME280;11491;41.942;24.220;2022-12-07T12:59:24;89584.28;;;8.97;65.72
22649;BME280;11491;41.942;24.220;2022-12-07T13:01:54;89586.19;;;9.12;64.98
22649;BME280;11491;41.942;24.220;2022-12-07T13:04:48;89576.69;;;8.99;64.34
22649;BME280;11491;41.942;24.220;2022-12-07T13:10:28;89575.84;;;8.95;64.08
22649;BME280;11491;41.942;24.220;2022-12-07T13:13:01;89569.13;;;9.01;64.34
22649;BME280;11491;41.942;24.220;2022-12-07T13:15:34;89573.28;;;9.14;64.28
22649;BME280;11491;41.942;24.220;2022-12-07T13:18:04;89570.19;;;9.12;63.88
22649;BME280;11491;41.942;24.220;2022-12-07T13:20:49;89569.03;;;8.69;63.54
22649;BME280;11491;41.942;24.220;2022-12-07T13:23:31;89577.28;;;8.64;64.36
22649;BME280;11491;41.942;24.220;2022-12-07T13:26:14;89578.50;;;8.67;64.80
22649;BME280;11491;41.942;24.220;2022-12-07T13:28:42;89577.69;;;8.78;64.27
22649;BME280;11491;41.942;24.220;2022-12-07T13:31:14;89572.91;;;8.72;64.12